Alice International Airport Alice US
ICAO: KALI
IATA: ALI
Category: Medium
Scheduled Services: No

Elevation: 178 ft
TransAlt. 18000 ft.

Airport Communications:
KINGSVILLE APP:119.9
ASOS:119.225
KINGSVILLE DEP:119.9
SAN ANGELO RDO:122.6
CTAF/UNICOM:123

KALI Zoom In..

If Map Doesn't Load, Click Here

Runways:

(A) RW 13 length 5997 ft width 100 ft
LOC 109.30 / hdg 128

(B) RW 17 length 4490 ft width 100 ft
LOC 109.30 / hdg 173

(C) RW 31 length 5997 ft width 100 ft
LOC 109.30 / hdg 308

(D) RW 35 length 4490 ft width 100 ft
LOC 109.30 / hdg 353

Location; KALI
Day. 23 / Time. 20.53 Zulu
* Altimeter: 29.86
* Temperature: 31° c. 87.8°f.
* Wind from: 300° Speed 08 kn.
Dewpoint: 20° c.
Visibility: 10 Statute Miles.
Clouds: Broken 4200 ft.

KALI 232053Z AUTO 30008KT 10SM BKN042 31/20 A2986 RMK AO2 SLP108 T03060200 56031


Wind From 300°
Speed 08 kn.

 
 
jpsmedia.com for Web Design worldairports.se 2018   terms of use